sensor_id;sensor_type;location;lat;lon;timestamp;P1;durP1;ratioP1;P2;durP2;ratioP2
19024;SDS011;9645;51.448;6.260;2023-05-29T00:00:05;12.77;;;5.30;;
19024;SDS011;9645;51.448;6.260;2023-05-29T00:02:33;9.07;;;4.97;;
19024;SDS011;9645;51.448;6.260;2023-05-29T00:05:00;17.47;;;5.13;;
19024;SDS011;9645;51.448;6.260;2023-05-29T00:07:28;14.90;;;5.13;;
19024;SDS011;9645;51.448;6.260;2023-05-29T00:09:55;16.37;;;6.33;;
19024;SDS011;9645;51.448;6.260;2023-05-29T00:12:23;10.90;;;5.80;;
19024;SDS011;9645;51.448;6.260;2023-05-29T00:14:50;13.00;;;6.13;;
19024;SDS011;9645;51.448;6.260;2023-05-29T00:17:18;13.40;;;5.87;;
19024;SDS011;9645;51.448;6.260;2023-05-29T00:19:45;16.70;;;5.47;;
19024;SDS011;9645;51.448;6.260;2023-05-29T00:22:13;12.43;;;5.30;;
19024;SDS011;9645;51.448;6.260;2023-05-29T00:24:40;13.13;;;5.80;;
19024;SDS011;9645;51.448;6.260;2023-05-29T00:27:07;17.30;;;6.40;;
19024;SDS011;9645;51.448;6.260;2023-05-29T00:29:36;21.53;;;6.67;;
19024;SDS011;9645;51.448;6.260;2023-05-29T00:32:04;14.13;;;5.60;;
19024;SDS011;9645;51.448;6.260;2023-05-29T00:34:31;15.47;;;5.40;;
19024;SDS011;9645;51.448;6.260;2023-05-29T00:36:58;13.60;;;6.20;;
19024;SDS011;9645;51.448;6.260;2023-05-29T00:39:33;24.20;;;6.00;;
19024;SDS011;9645;51.448;6.260;2023-05-29T00:42:01;13.88;;;6.38;;
19024;SDS011;9645;51.448;6.260;2023-05-29T00:44:28;14.07;;;6.10;;
19024;SDS011;9645;51.448;6.260;2023-05-29T00:46:56;14.23;;;6.10;;
19024;SDS011;9645;51.448;6.260;2023-05-29T00:49:24;13.98;;;6.72;;
19024;SDS011;9645;51.448;6.260;2023-05-29T00:51:55;16.13;;;6.38;;
19024;SDS011;9645;51.448;6.260;2023-05-29T00:54:26;18.83;;;6.97;;
19024;SDS011;9645;51.448;6.260;2023-05-29T00:56:54;17.47;;;6.43;;
19024;SDS011;9645;51.448;6.260;2023-05-29T00:59:25;14.70;;;5.95;;
19024;SDS011;9645;51.448;6.260;2023-05-29T01:01:56;18.70;;;6.57;;
19024;SDS011;9645;51.448;6.260;2023-05-29T01:04:24;9.40;;;5.28;;
19024;SDS011;9645;51.448;6.260;2023-05-29T01:06:52;14.65;;;6.40;;
19024;SDS011;9645;51.448;6.260;2023-05-29T01:09:20;34.67;;;5.45;;
19024;SDS011;9645;51.448;6.260;2023-05-29T01:11:49;16.63;;;5.90;;
19024;SDS011;9645;51.448;6.260;2023-05-29T01:14:25;13.77;;;6.07;;
19024;SDS011;9645;51.448;6.260;2023-05-29T01:17:03;13.35;;;6.22;;
19024;SDS011;9645;51.448;6.260;2023-05-29T01:19:46;19.10;;;6.20;;
19024;SDS011;9645;51.448;6.260;2023-05-29T01:22:35;15.05;;;5.60;;
19024;SDS011;9645;51.448;6.260;2023-05-29T01:25:11;18.35;;;5.30;;
19024;SDS011;9645;51.448;6.260;2023-05-29T01:27:47;14.32;;;5.60;;
19024;SDS011;9645;51.448;6.260;2023-05-29T01:30:15;24.33;;;6.38;;
19024;SDS011;9645;51.448;6.260;2023-05-29T01:32:43;8.40;;;5.00;;
19024;SDS011;9645;51.448;6.260;2023-05-29T01:35:11;21.65;;;5.43;;
19024;SDS011;9645;51.448;6.260;2023-05-29T01:37:38;20.40;;;4.03;;
19024;SDS011;9645;51.448;6.260;2023-05-29T01:40:06;24.65;;;4.95;;
19024;SDS011;9645;51.448;6.260;2023-05-29T01:42:34;19.60;;;4.80;;
19024;SDS011;9645;51.448;6.260;2023-05-29T01:45:03;12.90;;;4.47;;
19024;SDS011;9645;51.448;6.260;2023-05-29T01:47:31;11.73;;;4.30;;
19024;SDS011;9645;51.448;6.260;2023-05-29T01:49:59;10.75;;;4.32;;
19024;SDS011;9645;51.448;6.260;2023-05-29T01:52:28;12.23;;;3.95;;
19024;SDS011;9645;51.448;6.260;2023-05-29T01:54:55;14.10;;;4.05;;
19024;SDS011;9645;51.448;6.260;2023-05-29T01:57:22;16.77;;;4.40;;
19024;SDS011;9645;51.448;6.260;2023-05-29T01:59:50;11.77;;;3.97;;
19024;SDS011;9645;51.448;6.260;2023-05-29T02:02:21;22.05;;;4.47;;
19024;SDS011;9645;51.448;6.260;2023-05-29T02:04:48;11.45;;;3.85;;
19024;SDS011;9645;51.448;6.260;2023-05-29T02:07:17;11.68;;;4.10;;
19024;SDS011;9645;51.448;6.260;2023-05-29T02:09:44;19.35;;;4.78;;
19024;SDS011;9645;51.448;6.260;2023-05-29T02:12:11;11.77;;;3.50;;
19024;SDS011;9645;51.448;6.260;2023-05-29T02:14:39;22.83;;;3.80;;
19024;SDS011;9645;51.448;6.260;2023-05-29T02:17:06;12.73;;;3.50;;
19024;SDS011;9645;51.448;6.260;2023-05-29T02:19:35;10.93;;;3.35;;
19024;SDS011;9645;51.448;6.260;2023-05-29T02:22:03;13.48;;;3.90;;
19024;SDS011;9645;51.448;6.260;2023-05-29T02:24:30;13.50;;;3.63;;
19024;SDS011;9645;51.448;6.260;2023-05-29T02:26:59;14.82;;;3.85;;
19024;SDS011;9645;51.448;6.260;2023-05-29T02:29:28;11.70;;;3.45;;
19024;SDS011;9645;51.448;6.260;2023-05-29T02:31:55;16.63;;;3.42;;
19024;SDS011;9645;51.448;6.260;2023-05-29T02:34:22;11.20;;;3.30;;
19024;SDS011;9645;51.448;6.260;2023-05-29T02:36:50;12.52;;;4.28;;
19024;SDS011;9645;51.448;6.260;2023-05-29T02:39:18;13.73;;;3.72;;
19024;SDS011;9645;51.448;6.260;2023-05-29T02:41:45;13.15;;;3.42;;
19024;SDS011;9645;51.448;6.260;2023-05-29T02:44:12;17.38;;;3.42;;
19024;SDS011;9645;51.448;6.260;2023-05-29T02:46:40;13.85;;;2.90;;
19024;SDS011;9645;51.448;6.260;2023-05-29T02:49:07;17.20;;;4.30;;
19024;SDS011;9645;51.448;6.260;2023-05-29T02:51:34;14.95;;;3.00;;
19024;SDS011;9645;51.448;6.260;2023-05-29T02:54:03;18.40;;;3.78;;
19024;SDS011;9645;51.448;6.260;2023-05-29T02:56:30;33.97;;;3.30;;
19024;SDS011;9645;51.448;6.260;2023-05-29T02:58:58;9.88;;;2.70;;
19024;SDS011;9645;51.448;6.260;2023-05-29T03:01:25;10.55;;;3.03;;
19024;SDS011;9645;51.448;6.260;2023-05-29T03:03:52;8.35;;;2.95;;
19024;SDS011;9645;51.448;6.260;2023-05-29T03:06:19;13.45;;;3.10;;
19024;SDS011;9645;51.448;6.260;2023-05-29T03:08:46;13.98;;;3.00;;
19024;SDS011;9645;51.448;6.260;2023-05-29T03:11:16;16.98;;;3.45;;
19024;SDS011;9645;51.448;6.260;2023-05-29T03:13:43;11.30;;;2.83;;
19024;SDS011;9645;51.448;6.260;2023-05-29T03:16:11;23.15;;;3.10;;
19024;SDS011;9645;51.448;6.260;2023-05-29T03:18:39;11.60;;;2.67;;
19024;SDS011;9645;51.448;6.260;2023-05-29T03:21:06;30.73;;;2.22;;
19024;SDS011;9645;51.448;6.260;2023-05-29T03:23:33;13.48;;;3.75;;
19024;SDS011;9645;51.448;6.260;2023-05-29T03:26:01;10.55;;;2.40;;
19024;SDS011;9645;51.448;6.260;2023-05-29T03:28:29;16.58;;;2.67;;
19024;SDS011;9645;51.448;6.260;2023-05-29T03:30:56;10.43;;;2.40;;
19024;SDS011;9645;51.448;6.260;2023-05-29T03:33:24;16.27;;;2.75;;
19024;SDS011;9645;51.448;6.260;2023-05-29T03:35:51;17.92;;;2.67;;
19024;SDS011;9645;51.448;6.260;2023-05-29T03:38:17;13.23;;;2.50;;
19024;SDS011;9645;51.448;6.260;2023-05-29T03:40:44;19.65;;;2.92;;
19024;SDS011;9645;51.448;6.260;2023-05-29T03:43:11;11.80;;;2.78;;
19024;SDS011;9645;51.448;6.260;2023-05-29T03:45:40;21.52;;;3.03;;
19024;SDS011;9645;51.448;6.260;2023-05-29T03:48:07;23.38;;;3.63;;
19024;SDS011;9645;51.448;6.260;2023-05-29T03:50:34;16.30;;;2.78;;
19024;SDS011;9645;51.448;6.260;2023-05-29T03:53:01;12.65;;;2.83;;
19024;SDS011;9645;51.448;6.260;2023-05-29T03:55:28;16.70;;;3.45;;
19024;SDS011;9645;51.448;6.260;2023-05-29T03:57:55;20.65;;;4.18;;
19024;SDS011;9645;51.448;6.260;2023-05-29T04:00:22;13.50;;;2.53;;
19024;SDS011;9645;51.448;6.260;2023-05-29T04:02:50;13.18;;;2.83;;
19024;SDS011;9645;51.448;6.260;2023-05-29T04:05:17;15.15;;;2.92;;
19024;SDS011;9645;51.448;6.260;2023-05-29T04:07:45;13.75;;;3.60;;
19024;SDS011;9645;51.448;6.260;2023-05-29T04:10:12;20.48;;;3.10;;
19024;SDS011;9645;51.448;6.260;2023-05-29T04:12:39;11.30;;;2.95;;
19024;SDS011;9645;51.448;6.260;2023-05-29T04:15:06;18.42;;;3.00;;
19024;SDS011;9645;51.448;6.260;2023-05-29T04:17:34;12.73;;;2.78;;
19024;SDS011;9645;51.448;6.260;2023-05-29T04:20:02;12.57;;;2.55;;
19024;SDS011;9645;51.448;6.260;2023-05-29T04:22:33;10.48;;;2.72;;
19024;SDS011;9645;51.448;6.260;2023-05-29T04:25:01;17.50;;;3.08;;
19024;SDS011;9645;51.448;6.260;2023-05-29T04:27:29;22.00;;;3.33;;
19024;SDS011;9645;51.448;6.260;2023-05-29T04:29:57;12.27;;;2.83;;
19024;SDS011;9645;51.448;6.260;2023-05-29T04:32:25;9.25;;;2.60;;
19024;SDS011;9645;51.448;6.260;2023-05-29T04:34:52;22.80;;;3.25;;
19024;SDS011;9645;51.448;6.260;2023-05-29T04:37:21;18.15;;;3.25;;
19024;SDS011;9645;51.448;6.260;2023-05-29T04:39:54;15.57;;;2.80;;
19024;SDS011;9645;51.448;6.260;2023-05-29T04:42:22;14.77;;;2.70;;
19024;SDS011;9645;51.448;6.260;2023-05-29T04:44:50;20.25;;;2.80;;
19024;SDS011;9645;51.448;6.260;2023-05-29T04:47:17;21.20;;;2.45;;
19024;SDS011;9645;51.448;6.260;2023-05-29T04:49:44;15.82;;;2.95;;
19024;SDS011;9645;51.448;6.260;2023-05-29T04:52:15;17.52;;;3.10;;
19024;SDS011;9645;51.448;6.260;2023-05-29T04:54:43;11.55;;;2.80;;
19024;SDS011;9645;51.448;6.260;2023-05-29T04:57:10;18.45;;;2.83;;
19024;SDS011;9645;51.448;6.260;2023-05-29T04:59:37;20.40;;;3.22;;
19024;SDS011;9645;51.448;6.260;2023-05-29T05:02:04;11.90;;;2.67;;
19024;SDS011;9645;51.448;6.260;2023-05-29T05:04:32;16.58;;;3.03;;
19024;SDS011;9645;51.448;6.260;2023-05-29T05:06:59;10.10;;;3.17;;
19024;SDS011;9645;51.448;6.260;2023-05-29T05:09:27;17.70;;;3.35;;
19024;SDS011;9645;51.448;6.260;2023-05-29T05:11:55;12.00;;;2.70;;
19024;SDS011;9645;51.448;6.260;2023-05-29T05:14:22;23.25;;;2.63;;
19024;SDS011;9645;51.448;6.260;2023-05-29T05:16:49;19.02;;;4.90;;
19024;SDS011;9645;51.448;6.260;2023-05-29T05:19:17;18.73;;;3.67;;
19024;SDS011;9645;51.448;6.260;2023-05-29T05:21:44;14.95;;;2.65;;
19024;SDS011;9645;51.448;6.260;2023-05-29T05:24:11;13.77;;;2.70;;
19024;SDS011;9645;51.448;6.260;2023-05-29T05:26:38;24.48;;;3.15;;
19024;SDS011;9645;51.448;6.260;2023-05-29T05:29:07;22.02;;;3.08;;
19024;SDS011;9645;51.448;6.260;2023-05-29T05:31:34;8.35;;;2.40;;
19024;SDS011;9645;51.448;6.260;2023-05-29T05:34:01;14.80;;;2.60;;
19024;SDS011;9645;51.448;6.260;2023-05-29T05:36:28;21.70;;;3.03;;
19024;SDS011;9645;51.448;6.260;2023-05-29T05:38:56;17.48;;;2.72;;
19024;SDS011;9645;51.448;6.260;2023-05-29T05:41:23;11.18;;;3.28;;
19024;SDS011;9645;51.448;6.260;2023-05-29T05:43:50;18.55;;;4.45;;
19024;SDS011;9645;51.448;6.260;2023-05-29T05:46:19;13.50;;;2.97;;
19024;SDS011;9645;51.448;6.260;2023-05-29T05:48:46;20.52;;;3.03;;
19024;SDS011;9645;51.448;6.260;2023-05-29T05:51:12;14.80;;;2.90;;
19024;SDS011;9645;51.448;6.260;2023-05-29T05:53:39;16.95;;;2.80;;
19024;SDS011;9645;51.448;6.260;2023-05-29T05:56:07;13.52;;;2.83;;
19024;SDS011;9645;51.448;6.260;2023-05-29T05:58:34;10.15;;;2.92;;
19024;SDS011;9645;51.448;6.260;2023-05-29T06:01:01;22.45;;;2.85;;
19024;SDS011;9645;51.448;6.260;2023-05-29T06:03:29;19.48;;;3.08;;
19024;SDS011;9645;51.448;6.260;2023-05-29T06:05:58;15.32;;;2.65;;
19024;SDS011;9645;51.448;6.260;2023-05-29T06:08:25;16.90;;;2.75;;
19024;SDS011;9645;51.448;6.260;2023-05-29T06:10:52;12.85;;;2.28;;
19024;SDS011;9645;51.448;6.260;2023-05-29T06:13:19;11.20;;;2.57;;
19024;SDS011;9645;51.448;6.260;2023-05-29T06:15:46;15.65;;;3.25;;
19024;SDS011;9645;51.448;6.260;2023-05-29T06:18:14;20.23;;;3.43;;
19024;SDS011;9645;51.448;6.260;2023-05-29T06:20:42;23.30;;;3.50;;
19024;SDS011;9645;51.448;6.260;2023-05-29T06:23:09;16.77;;;3.57;;
19024;SDS011;9645;51.448;6.260;2023-05-29T06:25:37;16.00;;;2.88;;
19024;SDS011;9645;51.448;6.260;2023-05-29T06:28:04;16.57;;;3.07;;
19024;SDS011;9645;51.448;6.260;2023-05-29T06:30:32;16.50;;;2.60;;
19024;SDS011;9645;51.448;6.260;2023-05-29T06:32:59;14.30;;;3.60;;
19024;SDS011;9645;51.448;6.260;2023-05-29T06:35:26;17.55;;;3.05;;
19024;SDS011;9645;51.448;6.260;2023-05-29T06:37:55;9.40;;;2.93;;
19024;SDS011;9645;51.448;6.260;2023-05-29T06:40:22;17.97;;;3.50;;
19024;SDS011;9645;51.448;6.260;2023-05-29T06:42:49;8.60;;;3.20;;
19024;SDS011;9645;51.448;6.260;2023-05-29T06:45:17;9.93;;;2.77;;
19024;SDS011;9645;51.448;6.260;2023-05-29T06:47:44;12.37;;;2.30;;
19024;SDS011;9645;51.448;6.260;2023-05-29T06:50:11;15.13;;;3.50;;
19024;SDS011;9645;51.448;6.260;2023-05-29T06:52:38;13.30;;;3.07;;
19024;SDS011;9645;51.448;6.260;2023-05-29T06:55:07;11.27;;;3.07;;
19024;SDS011;9645;51.448;6.260;2023-05-29T06:57:34;15.50;;;2.60;;
19024;SDS011;9645;51.448;6.260;2023-05-29T07:00:01;20.87;;;3.47;;
19024;SDS011;9645;51.448;6.260;2023-05-29T07:02:31;23.40;;;2.80;;
19024;SDS011;9645;51.448;6.260;2023-05-29T07:04:58;15.20;;;4.30;;
19024;SDS011;9645;51.448;6.260;2023-05-29T07:07:25;15.47;;;3.00;;
19024;SDS011;9645;51.448;6.260;2023-05-29T07:09:52;18.17;;;3.30;;
19024;SDS011;9645;51.448;6.260;2023-05-29T07:12:21;17.50;;;2.60;;
19024;SDS011;9645;51.448;6.260;2023-05-29T07:14:48;12.30;;;2.30;;
19024;SDS011;9645;51.448;6.260;2023-05-29T07:17:15;28.13;;;2.80;;
19024;SDS011;9645;51.448;6.260;2023-05-29T07:19:42;21.13;;;3.40;;
19024;SDS011;9645;51.448;6.260;2023-05-29T07:22:09;12.63;;;2.60;;
19024;SDS011;9645;51.448;6.260;2023-05-29T07:24:36;10.77;;;2.80;;
19024;SDS011;9645;51.448;6.260;2023-05-29T07:27:03;18.80;;;2.53;;
19024;SDS011;9645;51.448;6.260;2023-05-29T07:29:32;9.50;;;2.60;;
19024;SDS011;9645;51.448;6.260;2023-05-29T07:32:00;17.53;;;2.33;;
19024;SDS011;9645;51.448;6.260;2023-05-29T07:34:27;20.50;;;2.70;;
19024;SDS011;9645;51.448;6.260;2023-05-29T07:36:57;18.10;;;2.60;;
19024;SDS011;9645;51.448;6.260;2023-05-29T07:39:26;8.47;;;2.23;;
19024;SDS011;9645;51.448;6.260;2023-05-29T07:41:53;9.50;;;2.50;;
19024;SDS011;9645;51.448;6.260;2023-05-29T07:44:20;11.60;;;2.50;;
19024;SDS011;9645;51.448;6.260;2023-05-29T07:46:48;11.63;;;2.57;;
19024;SDS011;9645;51.448;6.260;2023-05-29T07:49:15;9.53;;;2.40;;
19024;SDS011;9645;51.448;6.260;2023-05-29T07:51:43;21.63;;;3.07;;
19024;SDS011;9645;51.448;6.260;2023-05-29T07:54:10;15.27;;;3.37;;
19024;SDS011;9645;51.448;6.260;2023-05-29T07:56:37;10.77;;;2.57;;
19024;SDS011;9645;51.448;6.260;2023-05-29T07:59:05;8.07;;;2.80;;
19024;SDS011;9645;51.448;6.260;2023-05-29T08:01:34;15.20;;;2.50;;
19024;SDS011;9645;51.448;6.260;2023-05-29T08:04:03;11.43;;;2.80;;
19024;SDS011;9645;51.448;6.260;2023-05-29T08:06:30;11.60;;;2.60;;
19024;SDS011;9645;51.448;6.260;2023-05-29T08:08:59;21.13;;;2.40;;
19024;SDS011;9645;51.448;6.260;2023-05-29T08:11:26;12.90;;;2.23;;
19024;SDS011;9645;51.448;6.260;2023-05-29T08:13:53;16.43;;;2.77;;
19024;SDS011;9645;51.448;6.260;2023-05-29T08:16:21;17.80;;;2.77;;
19024;SDS011;9645;51.448;6.260;2023-05-29T08:18:48;11.03;;;2.70;;
19024;SDS011;9645;51.448;6.260;2023-05-29T08:21:16;8.97;;;2.13;;
19024;SDS011;9645;51.448;6.260;2023-05-29T08:23:44;10.73;;;2.57;;
19024;SDS011;9645;51.448;6.260;2023-05-29T08:26:11;6.23;;;2.17;;
19024;SDS011;9645;51.448;6.260;2023-05-29T08:28:40;8.40;;;2.10;;
19024;SDS011;9645;51.448;6.260;2023-05-29T08:31:07;14.53;;;2.70;;
19024;SDS011;9645;51.448;6.260;2023-05-29T08:33:34;16.50;;;3.07;;
19024;SDS011;9645;51.448;6.260;2023-05-29T08:36:02;9.83;;;2.50;;
19024;SDS011;9645;51.448;6.260;2023-05-29T08:38:30;13.30;;;2.47;;
19024;SDS011;9645;51.448;6.260;2023-05-29T08:40:57;9.90;;;2.57;;
19024;SDS011;9645;51.448;6.260;2023-05-29T08:43:25;12.80;;;2.67;;
19024;SDS011;9645;51.448;6.260;2023-05-29T08:46:00;16.03;;;3.03;;
19024;SDS011;9645;51.448;6.260;2023-05-29T08:48:29;14.30;;;2.70;;
19024;SDS011;9645;51.448;6.260;2023-05-29T08:50:58;12.63;;;2.10;;
19024;SDS011;9645;51.448;6.260;2023-05-29T08:53:28;13.33;;;3.50;;
19024;SDS011;9645;51.448;6.260;2023-05-29T08:55:57;11.17;;;2.23;;
19024;SDS011;9645;51.448;6.260;2023-05-29T08:58:25;12.53;;;2.80;;
19024;SDS011;9645;51.448;6.260;2023-05-29T09:00:52;13.60;;;2.27;;
19024;SDS011;9645;51.448;6.260;2023-05-29T09:03:20;12.60;;;2.77;;
19024;SDS011;9645;51.448;6.260;2023-05-29T09:05:47;18.30;;;2.43;;
19024;SDS011;9645;51.448;6.260;2023-05-29T09:08:15;10.27;;;2.47;;
19024;SDS011;9645;51.448;6.260;2023-05-29T09:10:44;13.67;;;2.70;;
19024;SDS011;9645;51.448;6.260;2023-05-29T09:13:12;16.50;;;2.70;;
19024;SDS011;9645;51.448;6.260;2023-05-29T09:15:39;9.43;;;2.50;;
19024;SDS011;9645;51.448;6.260;2023-05-29T09:18:08;10.07;;;2.80;;
19024;SDS011;9645;51.448;6.260;2023-05-29T09:20:35;9.17;;;2.53;;
19024;SDS011;9645;51.448;6.260;2023-05-29T09:23:03;12.43;;;2.10;;
19024;SDS011;9645;51.448;6.260;2023-05-29T09:25:32;16.40;;;3.17;;
19024;SDS011;9645;51.448;6.260;2023-05-29T09:28:03;22.17;;;2.90;;
19024;SDS011;9645;51.448;6.260;2023-05-29T09:30:35;14.07;;;2.30;;
19024;SDS011;9645;51.448;6.260;2023-05-29T09:33:03;15.90;;;2.63;;
19024;SDS011;9645;51.448;6.260;2023-05-29T09:35:34;6.80;;;2.30;;
19024;SDS011;9645;51.448;6.260;2023-05-29T09:38:02;8.50;;;2.53;;
19024;SDS011;9645;51.448;6.260;2023-05-29T09:40:30;12.03;;;3.00;;
19024;SDS011;9645;51.448;6.260;2023-05-29T09:43:03;11.50;;;2.43;;
19024;SDS011;9645;51.448;6.260;2023-05-29T09:45:32;11.50;;;2.60;;
19024;SDS011;9645;51.448;6.260;2023-05-29T09:48:02;9.63;;;2.60;;
19024;SDS011;9645;51.448;6.260;2023-05-29T09:50:32;12.77;;;3.10;;
19024;SDS011;9645;51.448;6.260;2023-05-29T09:53:00;11.90;;;2.60;;
19024;SDS011;9645;51.448;6.260;2023-05-29T09:55:28;8.60;;;2.77;;
19024;SDS011;9645;51.448;6.260;2023-05-29T09:57:57;19.73;;;3.53;;
19024;SDS011;9645;51.448;6.260;2023-05-29T10:00:34;10.33;;;2.50;;
19024;SDS011;9645;51.448;6.260;2023-05-29T10:03:14;5.80;;;2.07;;
19024;SDS011;9645;51.448;6.260;2023-05-29T10:05:47;11.03;;;2.40;;
19024;SDS011;9645;51.448;6.260;2023-05-29T10:08:17;12.40;;;2.90;;
19024;SDS011;9645;51.448;6.260;2023-05-29T10:10:46;9.80;;;2.50;;
19024;SDS011;9645;51.448;6.260;2023-05-29T10:13:14;10.93;;;2.53;;
19024;SDS011;9645;51.448;6.260;2023-05-29T10:15:45;11.73;;;2.37;;
19024;SDS011;9645;51.448;6.260;2023-05-29T10:18:19;8.50;;;2.77;;
19024;SDS011;9645;51.448;6.260;2023-05-29T10:20:49;9.27;;;2.13;;
19024;SDS011;9645;51.448;6.260;2023-05-29T10:23:17;14.40;;;3.23;;
19024;SDS011;9645;51.448;6.260;2023-05-29T10:25:48;7.97;;;2.83;;
19024;SDS011;9645;51.448;6.260;2023-05-29T10:28:18;11.90;;;3.10;;
19024;SDS011;9645;51.448;6.260;2023-05-29T10:30:47;6.70;;;2.20;;
19024;SDS011;9645;51.448;6.260;2023-05-29T10:33:36;13.23;;;3.23;;
19024;SDS011;9645;51.448;6.260;2023-05-29T10:36:13;7.33;;;2.57;;
19024;SDS011;9645;51.448;6.260;2023-05-29T10:38:41;11.10;;;2.57;;
19024;SDS011;9645;51.448;6.260;2023-05-29T10:41:32;6.80;;;2.50;;
19024;SDS011;9645;51.448;6.260;2023-05-29T10:44:04;7.23;;;2.27;;
19024;SDS011;9645;51.448;6.260;2023-05-29T10:47:04;7.30;;;2.50;;
19024;SDS011;9645;51.448;6.260;2023-05-29T10:49:31;12.13;;;3.80;;
19024;SDS011;9645;51.448;6.260;2023-05-29T10:51:59;12.50;;;2.40;;
19024;SDS011;9645;51.448;6.260;2023-05-29T10:54:30;7.70;;;2.27;;
19024;SDS011;9645;51.448;6.260;2023-05-29T10:57:07;8.50;;;2.57;;
19024;SDS011;9645;51.448;6.260;2023-05-29T10:59:35;10.10;;;3.20;;
19024;SDS011;9645;51.448;6.260;2023-05-29T11:02:05;13.47;;;3.17;;
19024;SDS011;9645;51.448;6.260;2023-05-29T11:04:32;4.70;;;2.40;;
19024;SDS011;9645;51.448;6.260;2023-05-29T11:07:02;10.90;;;2.53;;
19024;SDS011;9645;51.448;6.260;2023-05-29T11:09:32;15.23;;;3.00;;
19024;SDS011;9645;51.448;6.260;2023-05-29T11:12:13;12.50;;;2.63;;
19024;SDS011;9645;51.448;6.260;2023-05-29T11:15:01;9.67;;;2.23;;
19024;SDS011;9645;51.448;6.260;2023-05-29T11:17:45;6.63;;;2.33;;
19024;SDS011;9645;51.448;6.260;2023-05-29T11:20:17;7.50;;;2.40;;
19024;SDS011;9645;51.448;6.260;2023-05-29T11:22:59;10.80;;;2.67;;
19024;SDS011;9645;51.448;6.260;2023-05-29T11:25:29;8.60;;;2.53;;
19024;SDS011;9645;51.448;6.260;2023-05-29T11:27:59;11.70;;;2.30;;
19024;SDS011;9645;51.448;6.260;2023-05-29T11:30:26;8.80;;;2.90;;
19024;SDS011;9645;51.448;6.260;2023-05-29T11:32:54;13.13;;;2.53;;
19024;SDS011;9645;51.448;6.260;2023-05-29T11:35:29;13.43;;;2.70;;
19024;SDS011;9645;51.448;6.260;2023-05-29T11:38:03;10.60;;;2.33;;
19024;SDS011;9645;51.448;6.260;2023-05-29T11:40:34;12.80;;;2.67;;
19024;SDS011;9645;51.448;6.260;2023-05-29T11:43:03;8.77;;;2.70;;
19024;SDS011;9645;51.448;6.260;2023-05-29T11:45:31;14.60;;;2.83;;
19024;SDS011;9645;51.448;6.260;2023-05-29T11:48:02;16.43;;;2.63;;
19024;SDS011;9645;51.448;6.260;2023-05-29T11:50:30;6.17;;;2.30;;
19024;SDS011;9645;51.448;6.260;2023-05-29T11:52:58;7.00;;;2.20;;
19024;SDS011;9645;51.448;6.260;2023-05-29T11:55:26;10.43;;;2.50;;
19024;SDS011;9645;51.448;6.260;2023-05-29T11:57:55;10.03;;;3.37;;
19024;SDS011;9645;51.448;6.260;2023-05-29T12:00:24;11.90;;;2.20;;
19024;SDS011;9645;51.448;6.260;2023-05-29T12:02:51;25.97;;;2.87;;
19024;SDS011;9645;51.448;6.260;2023-05-29T12:05:21;6.23;;;2.83;;
19024;SDS011;9645;51.448;6.260;2023-05-29T12:07:48;11.07;;;2.60;;
19024;SDS011;9645;51.448;6.260;2023-05-29T12:10:16;8.37;;;2.33;;
19024;SDS011;9645;51.448;6.260;2023-05-29T12:12:47;10.90;;;2.60;;
19024;SDS011;9645;51.448;6.260;2023-05-29T12:15:16;13.77;;;2.90;;
19024;SDS011;9645;51.448;6.260;2023-05-29T12:17:44;4.90;;;2.33;;
19024;SDS011;9645;51.448;6.260;2023-05-29T12:20:12;4.87;;;2.20;;
19024;SDS011;9645;51.448;6.260;2023-05-29T12:22:41;17.60;;;2.63;;
19024;SDS011;9645;51.448;6.260;2023-05-29T12:25:09;9.70;;;2.50;;
19024;SDS011;9645;51.448;6.260;2023-05-29T12:27:37;8.27;;;2.53;;
19024;SDS011;9645;51.448;6.260;2023-05-29T12:30:08;5.57;;;2.40;;
19024;SDS011;9645;51.448;6.260;2023-05-29T12:32:37;15.60;;;2.40;;
19024;SDS011;9645;51.448;6.260;2023-05-29T12:35:12;8.20;;;2.43;;
19024;SDS011;9645;51.448;6.260;2023-05-29T12:37:45;10.50;;;2.50;;
19024;SDS011;9645;51.448;6.260;2023-05-29T12:40:16;8.17;;;2.50;;
19024;SDS011;9645;51.448;6.260;2023-05-29T12:42:45;5.73;;;2.60;;
19024;SDS011;9645;51.448;6.260;2023-05-29T12:45:13;6.37;;;2.10;;
19024;SDS011;9645;51.448;6.260;2023-05-29T12:47:50;11.43;;;2.20;;
19024;SDS011;9645;51.448;6.260;2023-05-29T12:50:24;7.80;;;2.23;;
19024;SDS011;9645;51.448;6.260;2023-05-29T12:52:54;8.03;;;2.97;;
19024;SDS011;9645;51.448;6.260;2023-05-29T12:55:25;6.60;;;2.57;;
19024;SDS011;9645;51.448;6.260;2023-05-29T12:57:53;6.30;;;2.33;;
19024;SDS011;9645;51.448;6.260;2023-05-29T13:00:21;5.40;;;2.47;;
19024;SDS011;9645;51.448;6.260;2023-05-29T13:02:48;7.47;;;2.67;;
19024;SDS011;9645;51.448;6.260;2023-05-29T13:05:15;14.60;;;2.77;;
19024;SDS011;9645;51.448;6.260;2023-05-29T13:07:44;3.20;;;1.87;;
19024;SDS011;9645;51.448;6.260;2023-05-29T13:10:14;5.13;;;1.90;;
19024;SDS011;9645;51.448;6.260;2023-05-29T13:12:42;7.90;;;2.40;;
19024;SDS011;9645;51.448;6.260;2023-05-29T13:15:09;12.40;;;2.70;;
19024;SDS011;9645;51.448;6.260;2023-05-29T13:17:37;6.10;;;2.27;;
19024;SDS011;9645;51.448;6.260;2023-05-29T13:20:07;7.30;;;2.47;;
19024;SDS011;9645;51.448;6.260;2023-05-29T13:22:35;9.70;;;2.87;;
19024;SDS011;9645;51.448;6.260;2023-05-29T13:25:02;7.20;;;2.47;;
19024;SDS011;9645;51.448;6.260;2023-05-29T13:27:32;10.23;;;2.73;;
19024;SDS011;9645;51.448;6.260;2023-05-29T13:30:00;13.73;;;2.50;;
19024;SDS011;9645;51.448;6.260;2023-05-29T13:32:28;13.90;;;2.67;;
19024;SDS011;9645;51.448;6.260;2023-05-29T13:34:55;8.60;;;2.20;;
19024;SDS011;9645;51.448;6.260;2023-05-29T13:37:23;10.17;;;2.77;;
19024;SDS011;9645;51.448;6.260;2023-05-29T13:39:52;11.17;;;2.80;;
19024;SDS011;9645;51.448;6.260;2023-05-29T13:42:20;10.33;;;2.50;;
19024;SDS011;9645;51.448;6.260;2023-05-29T13:44:49;4.50;;;2.70;;
19024;SDS011;9645;51.448;6.260;2023-05-29T13:47:16;11.03;;;2.70;;
19024;SDS011;9645;51.448;6.260;2023-05-29T13:49:44;8.37;;;2.63;;
19024;SDS011;9645;51.448;6.260;2023-05-29T13:52:10;5.00;;;2.60;;
19024;SDS011;9645;51.448;6.260;2023-05-29T13:54:37;10.53;;;2.47;;
19024;SDS011;9645;51.448;6.260;2023-05-29T13:57:05;8.17;;;2.70;;
19024;SDS011;9645;51.448;6.260;2023-05-29T13:59:35;9.60;;;3.10;;
19024;SDS011;9645;51.448;6.260;2023-05-29T14:02:04;6.73;;;2.37;;
19024;SDS011;9645;51.448;6.260;2023-05-29T14:04:33;11.00;;;3.07;;
19024;SDS011;9645;51.448;6.260;2023-05-29T14:07:00;13.77;;;3.43;;
19024;SDS011;9645;51.448;6.260;2023-05-29T14:09:27;12.93;;;2.83;;
19024;SDS011;9645;51.448;6.260;2023-05-29T14:11:54;6.57;;;2.30;;
19024;SDS011;9645;51.448;6.260;2023-05-29T14:14:22;8.43;;;2.73;;
19024;SDS011;9645;51.448;6.260;2023-05-29T14:16:49;8.93;;;2.90;;
19024;SDS011;9645;51.448;6.260;2023-05-29T14:19:18;9.00;;;2.50;;
19024;SDS011;9645;51.448;6.260;2023-05-29T14:21:45;8.73;;;3.53;;
19024;SDS011;9645;51.448;6.260;2023-05-29T14:24:12;13.40;;;2.57;;
19024;SDS011;9645;51.448;6.260;2023-05-29T14:26:40;10.30;;;2.50;;
19024;SDS011;9645;51.448;6.260;2023-05-29T14:29:10;16.77;;;5.07;;
19024;SDS011;9645;51.448;6.260;2023-05-29T14:31:38;9.97;;;3.10;;
19024;SDS011;9645;51.448;6.260;2023-05-29T14:34:05;7.53;;;2.77;;
19024;SDS011;9645;51.448;6.260;2023-05-29T14:36:34;9.67;;;3.20;;
19024;SDS011;9645;51.448;6.260;2023-05-29T14:39:01;10.80;;;2.90;;
19024;SDS011;9645;51.448;6.260;2023-05-29T14:41:29;10.17;;;2.90;;
19024;SDS011;9645;51.448;6.260;2023-05-29T14:43:58;12.97;;;2.50;;
19024;SDS011;9645;51.448;6.260;2023-05-29T14:46:25;13.77;;;3.33;;
19024;SDS011;9645;51.448;6.260;2023-05-29T14:48:56;16.73;;;3.10;;
19024;SDS011;9645;51.448;6.260;2023-05-29T14:51:23;12.60;;;2.90;;
19024;SDS011;9645;51.448;6.260;2023-05-29T14:53:52;17.33;;;2.97;;
19024;SDS011;9645;51.448;6.260;2023-05-29T14:56:19;20.50;;;2.90;;
19024;SDS011;9645;51.448;6.260;2023-05-29T14:58:46;5.20;;;2.00;;